createdAt,value
2023-05-15T00:01:50.433Z,100835.91
2023-05-15T00:04:20.853Z,100835.91
2023-05-15T00:06:52.121Z,100836.72
2023-05-15T00:09:22.806Z,100841.56
2023-05-15T00:11:54.962Z,100844.41
2023-05-15T00:14:27.221Z,100841.56
2023-05-15T00:16:57.843Z,100839.53
2023-05-15T00:19:28.727Z,100839.53
2023-05-15T00:21:59.246Z,100827.44
2023-05-15T00:24:29.788Z,100833.09
2023-05-15T00:27:02.831Z,100825.81
2023-05-15T00:29:33.258Z,100826.22
2023-05-15T00:32:04.299Z,100822.56
2023-05-15T00:34:34.276Z,100824.56
2023-05-15T00:37:04.225Z,100825.78
2023-05-15T00:39:34.847Z,100824.56
2023-05-15T00:42:09.231Z,100822.94
2023-05-15T00:44:43.201Z,100820.91
2023-05-15T00:47:15.583Z,100824.13
2023-05-15T00:49:46.986Z,100818.50
2023-05-15T00:52:18.315Z,100819.69
2023-05-15T00:54:48.436Z,100816.84
2023-05-15T00:57:22.388Z,100825.34
2023-05-15T00:59:55.369Z,100813.22
2023-05-15T01:02:26.396Z,100803.13
2023-05-15T01:04:57.153Z,100799.47
2023-05-15T01:07:27.677Z,100797.44
2023-05-15T01:09:59.954Z,100795.81
2023-05-15T01:12:35.609Z,100795.81
2023-05-15T01:15:06.251Z,100797.00
2023-05-15T01:17:36.439Z,100796.56
2023-05-15T01:20:13.396Z,100794.13
2023-05-15T01:23:07.837Z,100790.47
2023-05-15T01:26:29.625Z,100787.22
2023-05-15T01:29:11.514Z,100781.97
2023-05-15T01:31:50.402Z,100784.78
2023-05-15T01:34:25.925Z,100777.50
2023-05-15T01:37:05.736Z,100777.91
2023-05-15T01:39:39.899Z,100765.75
2023-05-15T01:42:14.912Z,100771.00
2023-05-15T01:45:10.100Z,100775.41
2023-05-15T01:47:47.363Z,100768.91
2023-05-15T01:50:22.161Z,100774.91
2023-05-15T01:52:58.881Z,100774.50
2023-05-15T01:55:33.008Z,100776.06
2023-05-15T01:58:07.188Z,100774.84
2023-05-15T02:00:41.212Z,100784.94
2023-05-15T02:03:12.212Z,100782.88
2023-05-15T02:05:44.432Z,100786.09
2023-05-15T02:08:15.812Z,100780.84
2023-05-15T02:10:47.718Z,100784.03
2023-05-15T02:13:19.531Z,100787.25
2023-05-15T02:15:52.404Z,100782.78
2023-05-15T02:18:23.000Z,100788.00
2023-05-15T02:20:53.210Z,100786.38
2023-05-15T02:23:23.765Z,100788.38
2023-05-15T02:26:23.922Z,100792.00
2023-05-15T02:29:12.671Z,100790.34
2023-05-15T02:31:55.584Z,100794.84
2023-05-15T02:34:39.432Z,100796.47
2023-05-15T02:37:18.646Z,100798.09
2023-05-15T02:39:54.335Z,100791.25
2023-05-15T02:42:26.091Z,100790.88
2023-05-15T02:44:58.484Z,100789.66
2023-05-15T02:47:32.275Z,100791.31
2023-05-15T02:50:04.138Z,100798.59
2023-05-15T02:52:36.762Z,100792.53
2023-05-15T02:55:08.179Z,100796.19
2023-05-15T02:57:38.634Z,100797.00
2023-05-15T03:00:12.148Z,100790.16
2023-05-15T03:02:44.239Z,100790.16
2023-05-15T03:05:14.366Z,100790.16
2023-05-15T03:07:45.089Z,100794.59
2023-05-15T03:10:15.596Z,100795.41
2023-05-15T03:12:46.100Z,100790.16
2023-05-15T03:15:16.594Z,100789.34
2023-05-15T03:17:49.055Z,100789.34
2023-05-15T03:20:19.411Z,100784.50
2023-05-15T03:22:49.810Z,100788.16
2023-05-15T03:25:20.047Z,100781.25
2023-05-15T03:27:50.568Z,100786.53
2023-05-15T03:30:20.693Z,100786.53
2023-05-15T03:32:52.599Z,100792.19
2023-05-15T03:35:23.379Z,100784.06
2023-05-15T03:37:54.279Z,100792.53
2023-05-15T03:40:25.057Z,100799.03
2023-05-15T03:42:55.575Z,100803.84
2023-05-15T03:45:26.348Z,100800.66
2023-05-15T03:47:58.634Z,100799.03
2023-05-15T03:50:29.586Z,100806.66
2023-05-15T03:52:59.860Z,100809.88
2023-05-15T03:55:30.928Z,100798.19
2023-05-15T03:58:01.508Z,100799.03
2023-05-15T04:00:32.282Z,100804.28
2023-05-15T04:03:04.919Z,100808.34
2023-05-15T04:05:35.637Z,100807.16
2023-05-15T04:08:05.512Z,100813.22
2023-05-15T04:10:36.088Z,100808.41
2023-05-15T04:13:06.866Z,100803.16
2023-05-15T04:15:37.553Z,100804.81
2023-05-15T04:18:10.500Z,100808.47
2023-05-15T04:20:41.175Z,100808.88
2023-05-15T04:23:11.605Z,100791.91
2023-05-15T04:25:43.223Z,100806.03
2023-05-15T04:28:13.672Z,100802.03
2023-05-15T04:30:44.433Z,100807.31
2023-05-15T04:33:16.058Z,100802.88
2023-05-15T04:35:46.436Z,100803.69
2023-05-15T04:38:17.026Z,100804.53
2023-05-15T04:40:47.052Z,100799.31
2023-05-15T04:43:17.677Z,100796.88
2023-05-15T04:45:48.241Z,100795.69
2023-05-15T04:48:21.584Z,100795.75
2023-05-15T04:50:52.270Z,100793.34
2023-05-15T04:53:22.977Z,100801.44
2023-05-15T04:55:52.983Z,100795.41
2023-05-15T04:58:23.515Z,100792.63
2023-05-15T05:00:54.331Z,100795.03
2023-05-15T05:03:26.050Z,100799.94
2023-05-15T05:05:56.878Z,100797.16
2023-05-15T05:08:27.094Z,100796.38
2023-05-15T05:10:59.817Z,100809.78
2023-05-15T05:13:29.978Z,100805.81
2023-05-15T05:16:00.565Z,100803.41
2023-05-15T05:18:47.936Z,100807.47
2023-05-15T05:21:18.470Z,100802.25
2023-05-15T05:23:49.323Z,100793.81
2023-05-15T05:26:19.960Z,100797.47
2023-05-15T05:28:50.505Z,100801.56
2023-05-15T05:31:21.286Z,100799.56
2023-05-15T05:33:53.578Z,100791.09
2023-05-15T05:36:24.202Z,100798.81
2023-05-15T05:38:54.801Z,100794.81
2023-05-15T05:41:25.521Z,100789.19
2023-05-15T05:43:55.949Z,100796.53
2023-05-15T05:46:27.583Z,100794.97
2023-05-15T05:49:00.352Z,100799.06
2023-05-15T05:51:31.890Z,100784.97
2023-05-15T05:54:03.428Z,100780.97
2023-05-15T05:56:34.209Z,100781.44
2023-05-15T05:59:04.321Z,100785.91
2023-05-15T06:01:34.528Z,100774.25
2023-05-15T06:04:07.933Z,100776.69
2023-05-15T06:06:38.888Z,100773.88
2023-05-15T06:09:09.843Z,100769.88
2023-05-15T06:11:40.878Z,100764.28
2023-05-15T06:14:10.801Z,100748.09
2023-05-15T06:16:41.330Z,100751.38
2023-05-15T06:19:13.965Z,100755.06
2023-05-15T06:21:44.526Z,100746.16
2023-05-15T06:24:15.342Z,100752.31
2023-05-15T06:26:45.901Z,100746.28
2023-05-15T06:29:16.453Z,100745.09
2023-05-15T06:31:46.486Z,100743.91
2023-05-15T06:34:19.407Z,100738.69
2023-05-15T06:36:49.446Z,100751.66
2023-05-15T06:39:19.983Z,100742.75
2023-05-15T06:41:50.223Z,100748.06
2023-05-15T06:44:20.745Z,100737.53
2023-05-15T06:46:51.222Z,100734.69
2023-05-15T06:49:23.971Z,100745.66
2023-05-15T06:51:55.356Z,100736.38
2023-05-15T06:54:25.535Z,100741.25
2023-05-15T06:56:56.172Z,100731.56
2023-05-15T06:59:26.764Z,100737.22
2023-05-15T07:01:57.496Z,100733.19
2023-05-15T07:04:31.497Z,100738.91
2023-05-15T07:07:02.456Z,100732.41
2023-05-15T07:09:34.018Z,100727.56
2023-05-15T07:12:04.319Z,100728.78
2023-05-15T07:14:34.665Z,100725.97
2023-05-15T07:17:04.758Z,100718.28
2023-05-15T07:19:37.446Z,100719.91
2023-05-15T07:22:08.751Z,100717.50
2023-05-15T07:24:40.569Z,100716.66
2023-05-15T07:27:11.517Z,100722.38
2023-05-15T07:29:42.114Z,100717.91
2023-05-15T07:32:12.742Z,100717.91
2023-05-15T07:34:45.203Z,100716.72
2023-05-15T07:37:16.888Z,100717.94
2023-05-15T07:39:47.653Z,100715.09
2023-05-15T07:42:18.735Z,100717.13
2023-05-15T07:44:49.667Z,100710.66
2023-05-15T07:47:20.843Z,100709.03
2023-05-15T07:49:52.333Z,100703.75
2023-05-15T07:52:23.441Z,100707.03
2023-05-15T07:54:54.107Z,100705.38
2023-05-15T07:57:26.054Z,100706.59
2023-05-15T07:59:56.459Z,100702.53
2023-05-15T08:02:26.790Z,100694.44
2023-05-15T08:04:59.518Z,100702.94
2023-05-15T08:07:30.305Z,100693.22
2023-05-15T08:10:00.148Z,100687.13
2023-05-15T08:12:30.233Z,100681.44
2023-05-15T08:15:00.293Z,100679.84
2023-05-15T08:17:31.063Z,100676.16
2023-05-15T08:20:03.473Z,100678.19
2023-05-15T08:22:33.630Z,100672.09
2023-05-15T08:25:04.341Z,100667.66
2023-05-15T08:27:35.020Z,100663.56
2023-05-15T08:30:06.101Z,100655.47
2023-05-15T08:32:36.745Z,100652.25
2023-05-15T08:35:10.843Z,100659.16
2023-05-15T08:37:41.662Z,100648.59
2023-05-15T08:40:14.342Z,100653.88
2023-05-15T08:42:50.993Z,100648.56
2023-05-15T08:45:22.626Z,100648.19
2023-05-15T08:47:53.651Z,100648.97
2023-05-15T08:50:27.376Z,100649.38
2023-05-15T08:53:02.003Z,100643.28
2023-05-15T08:55:32.288Z,100639.22
2023-05-15T08:58:04.456Z,100655.88
2023-05-15T09:00:35.701Z,100642.88
2023-05-15T09:03:08.102Z,100636.00
2023-05-15T09:05:40.237Z,100627.88
2023-05-15T09:08:12.644Z,100629.06
2023-05-15T09:10:43.190Z,100628.25
2023-05-15T09:13:15.623Z,100620.09
2023-05-15T09:15:47.748Z,100611.19
2023-05-15T09:18:19.372Z,100612.00
2023-05-15T09:20:53.522Z,100603.47
2023-05-15T09:23:29.855Z,100605.88
2023-05-15T09:26:00.812Z,100600.22
2023-05-15T09:28:34.156Z,100598.19
2023-05-15T09:31:09.311Z,100609.13
2023-05-15T09:33:41.025Z,100600.59
2023-05-15T09:36:14.113Z,100599.81
2023-05-15T09:38:48.637Z,100601.44
2023-05-15T09:41:29.429Z,100587.22
2023-05-15T09:43:59.911Z,100583.19
2023-05-15T09:46:30.615Z,100588.44
2023-05-15T09:49:02.665Z,100585.16
2023-05-15T09:51:34.721Z,100581.09
2023-05-15T09:54:05.372Z,100574.19
2023-05-15T09:56:36.683Z,100576.63
2023-05-15T09:59:06.853Z,100581.09
2023-05-15T10:01:39.402Z,100573.38
2023-05-15T10:04:09.524Z,100583.53
2023-05-15T10:06:43.872Z,100568.91
2023-05-15T10:09:14.720Z,100570.94
2023-05-15T10:11:47.580Z,100568.09
2023-05-15T10:14:21.161Z,100555.53
2023-05-15T10:16:53.567Z,100549.84
2023-05-15T10:19:31.294Z,100542.91
2023-05-15T10:22:04.291Z,100540.06
2023-05-15T10:24:35.990Z,100545.34
2023-05-15T10:27:07.792Z,100543.31
2023-05-15T10:29:39.522Z,100531.94
2023-05-15T10:32:09.844Z,100533.56
2023-05-15T10:34:40.576Z,100535.59
2023-05-15T10:37:14.555Z,100529.91
2023-05-15T10:39:47.915Z,100533.97
2023-05-15T10:42:19.363Z,100539.66
2023-05-15T10:44:51.499Z,100533.16
2023-05-15T10:47:22.422Z,100526.69
2023-05-15T10:49:52.461Z,100515.31
2023-05-15T10:52:24.749Z,100510.44
2023-05-15T10:54:57.380Z,100507.59
2023-05-15T10:57:27.844Z,100501.09
2023-05-15T10:59:57.951Z,100503.53
2023-05-15T11:02:31.918Z,100497.84
2023-05-15T11:05:04.796Z,100488.09
2023-05-15T11:07:37.615Z,100484.81
2023-05-15T11:10:41.909Z,100492.13
2023-05-15T11:13:12.432Z,100481.59
2023-05-15T11:15:46.485Z,100481.19
2023-05-15T11:18:17.622Z,100478.75
2023-05-15T11:21:10.601Z,100471.00
2023-05-15T11:23:49.549Z,100462.50
2023-05-15T11:26:34.784Z,100457.63
2023-05-15T11:29:22.343Z,100452.75
2023-05-15T11:31:53.221Z,100451.94
2023-05-15T11:34:33.433Z,100437.31
2023-05-15T11:37:04.659Z,100435.28
2023-05-15T11:39:43.783Z,100427.56
2023-05-15T11:42:15.617Z,100426.34
2023-05-15T11:44:49.508Z,100429.19
2023-05-15T11:47:20.006Z,100417.03
2023-05-15T11:49:52.488Z,100426.34
2023-05-15T11:52:23.112Z,100415.75
2023-05-15T11:54:57.933Z,100410.91
2023-05-15T11:57:27.946Z,100399.53
2023-05-15T11:59:58.350Z,100397.50
2023-05-15T12:02:30.528Z,100404.00
2023-05-15T12:05:01.224Z,100394.66
2023-05-15T12:07:32.907Z,100391.81
2023-05-15T12:10:05.328Z,100396.69
2023-05-15T12:12:37.689Z,100387.34
2023-05-15T12:15:10.895Z,100387.78
2023-05-15T12:17:42.901Z,100380.47
2023-05-15T12:20:20.330Z,100381.69
2023-05-15T12:22:50.722Z,100383.75
2023-05-15T12:25:22.718Z,100378.06
2023-05-15T12:27:53.554Z,100377.66
2023-05-15T12:30:24.424Z,100379.72
2023-05-15T12:32:55.277Z,100367.53
2023-05-15T12:35:25.547Z,100359.81
2023-05-15T12:37:56.160Z,100355.38
2023-05-15T12:40:29.900Z,100359.00
2023-05-15T12:43:00.591Z,100366.72
2023-05-15T12:45:30.797Z,100354.53
2023-05-15T12:48:02.192Z,100358.56
2023-05-15T12:50:35.640Z,100352.09
2023-05-15T12:53:08.334Z,100344.78
2023-05-15T12:55:42.907Z,100349.69
2023-05-15T12:58:15.612Z,100338.72
2023-05-15T13:00:48.376Z,100341.56
2023-05-15T13:03:22.569Z,100342.78
2023-05-15T13:05:55.175Z,100336.31
2023-05-15T13:08:26.006Z,100342.00
2023-05-15T13:11:02.444Z,100333.47
2023-05-15T13:13:50.310Z,100330.63
2023-05-15T13:16:26.507Z,100333.06
2023-05-15T13:18:57.536Z,100339.97
2023-05-15T13:21:28.287Z,100334.72
2023-05-15T13:23:59.125Z,100338.78
2023-05-15T13:26:31.541Z,100335.13
2023-05-15T13:29:01.970Z,100331.94
2023-05-15T13:31:32.579Z,100342.06
2023-05-15T13:34:02.943Z,100335.59
2023-05-15T13:36:33.413Z,100337.63
2023-05-15T13:39:04.164Z,100336.81
2023-05-15T13:41:36.666Z,100343.72
2023-05-15T13:44:06.841Z,100339.69
2023-05-15T13:46:37.396Z,100339.28
2023-05-15T13:49:07.954Z,100335.28
2023-05-15T13:51:38.136Z,100334.44
2023-05-15T13:54:08.771Z,100334.09
2023-05-15T13:56:41.108Z,100330.41
2023-05-15T13:59:11.645Z,100324.34
2023-05-15T14:01:42.066Z,100323.97
2023-05-15T14:04:12.797Z,100327.22
2023-05-15T14:06:44.054Z,100319.91
2023-05-15T14:09:14.804Z,100317.50
2023-05-15T14:11:46.830Z,100315.88
2023-05-15T14:14:17.165Z,100317.94
2023-05-15T14:16:47.896Z,100318.34
2023-05-15T14:19:18.372Z,100315.13
2023-05-15T14:21:48.913Z,100319.97
2023-05-15T14:24:19.528Z,100317.56
2023-05-15T14:26:51.906Z,100320.81
2023-05-15T14:29:22.466Z,100311.94
2023-05-15T14:31:53.024Z,100315.97
2023-05-15T14:34:24.200Z,100320.84
2023-05-15T14:36:54.352Z,100311.13
2023-05-15T14:39:24.488Z,100315.19
2023-05-15T14:41:56.944Z,100313.56
2023-05-15T14:44:27.395Z,100313.97
2023-05-15T14:47:10.310Z,100304.63
2023-05-15T14:49:41.482Z,100307.91
2023-05-15T14:52:13.662Z,100307.09
2023-05-15T14:54:44.674Z,100304.66
2023-05-15T14:57:21.058Z,100320.91
2023-05-15T14:59:51.589Z,100314.03
2023-05-15T15:02:21.704Z,100304.69
2023-05-15T15:04:52.302Z,100311.59
2023-05-15T15:07:22.252Z,100313.63
2023-05-15T15:09:52.449Z,100314.03
2023-05-15T15:12:24.334Z,100316.06
2023-05-15T15:14:55.768Z,100317.72
2023-05-15T15:17:27.098Z,100316.09
2023-05-15T15:19:58.012Z,100323.44
2023-05-15T15:22:28.909Z,100321.81
2023-05-15T15:25:00.925Z,100325.03
2023-05-15T15:27:35.406Z,100323.41
2023-05-15T15:30:07.151Z,100314.53
2023-05-15T15:32:37.890Z,100317.78
2023-05-15T15:35:10.177Z,100324.66
2023-05-15T15:37:41.226Z,100332.00
2023-05-15T15:40:12.530Z,100330.38
2023-05-15T15:42:45.409Z,100337.25
2023-05-15T15:45:15.295Z,100336.06
2023-05-15T15:47:46.198Z,100329.19
2023-05-15T15:50:17.235Z,100337.31
2023-05-15T15:52:47.191Z,100337.75
2023-05-15T15:55:17.172Z,100335.28
2023-05-15T15:57:49.450Z,100337.75
2023-05-15T16:00:20.858Z,100337.38
2023-05-15T16:02:51.119Z,100334.91
2023-05-15T16:05:21.818Z,100330.88
2023-05-15T16:07:51.556Z,100338.59
2023-05-15T16:10:21.572Z,100336.16
2023-05-15T16:12:54.004Z,100337.38
2023-05-15T16:15:24.657Z,100337.81
2023-05-15T16:17:55.738Z,100337.38
2023-05-15T16:20:26.550Z,100330.91
2023-05-15T16:22:57.158Z,100324.03
2023-05-15T16:25:27.600Z,100326.03
2023-05-15T16:27:59.964Z,100330.91
2023-05-15T16:30:44.272Z,100334.16
2023-05-15T16:33:19.924Z,100330.13
2023-05-15T16:35:49.878Z,100342.28
2023-05-15T16:38:21.610Z,100341.47
2023-05-15T16:40:52.397Z,100343.91
2023-05-15T16:43:23.988Z,100336.59
2023-05-15T16:45:54.699Z,100342.28
2023-05-15T16:48:26.617Z,100348.38
2023-05-15T16:50:57.334Z,100351.63
2023-05-15T16:53:27.844Z,100344.34
2023-05-15T16:55:58.206Z,100343.50
2023-05-15T16:58:31.176Z,100343.13
2023-05-15T17:01:03.499Z,100340.69
2023-05-15T17:03:34.615Z,100346.78
2023-05-15T17:06:05.150Z,100345.16
2023-05-15T17:08:35.693Z,100345.59
2023-05-15T17:11:06.273Z,100358.56
2023-05-15T17:13:38.736Z,100357.31
2023-05-15T17:16:09.345Z,100356.94
2023-05-15T17:18:40.135Z,100358.16
2023-05-15T17:21:11.297Z,100359.38
2023-05-15T17:23:41.562Z,100360.59
2023-05-15T17:26:11.961Z,100360.19
2023-05-15T17:28:45.196Z,100358.56
2023-05-15T17:31:15.394Z,100362.63
2023-05-15T17:33:47.587Z,100363.03
2023-05-15T17:36:18.675Z,100360.63
2023-05-15T17:38:48.788Z,100370.34
2023-05-15T17:41:18.829Z,100367.91
2023-05-15T17:43:53.527Z,100364.28
2023-05-15T17:46:24.226Z,100369.53
2023-05-15T17:48:54.481Z,100366.28
2023-05-15T17:51:25.279Z,100367.50
2023-05-15T17:53:55.978Z,100374.41
2023-05-15T17:56:27.595Z,100383.72
2023-05-15T17:58:59.698Z,100382.91
2023-05-15T18:01:30.195Z,100378.06
2023-05-15T18:04:01.117Z,100381.28
2023-05-15T18:06:31.536Z,100378.88
2023-05-15T18:09:02.752Z,100379.66
2023-05-15T18:11:32.691Z,100369.97
2023-05-15T18:14:07.809Z,100369.13
2023-05-15T18:16:37.968Z,100372.34
2023-05-15T18:19:08.729Z,100377.22
2023-05-15T18:21:39.223Z,100380.50
2023-05-15T18:24:10.200Z,100378.44
2023-05-15T18:26:40.222Z,100382.91
2023-05-15T18:29:13.037Z,100378.47
2023-05-15T18:31:46.701Z,100379.25
2023-05-15T18:34:16.814Z,100375.22
2023-05-15T18:36:47.223Z,100378.88
2023-05-15T18:39:18.198Z,100375.63
2023-05-15T18:41:48.166Z,100382.50
2023-05-15T18:44:19.818Z,100391.00
2023-05-15T18:46:49.891Z,100397.09
2023-05-15T18:49:21.083Z,100392.66
2023-05-15T18:51:51.651Z,100396.69
2023-05-15T18:54:22.476Z,100398.69
2023-05-15T18:56:53.485Z,100395.50
2023-05-15T18:59:28.665Z,100392.66
2023-05-15T19:02:03.280Z,100395.06
2023-05-15T19:04:40.279Z,100391.41
2023-05-15T19:07:11.652Z,100393.84
2023-05-15T19:09:42.215Z,100391.44
2023-05-15T19:12:12.814Z,100397.91
2023-05-15T19:14:45.469Z,100401.13
2023-05-15T19:17:15.874Z,100395.88
2023-05-15T19:19:45.673Z,100392.66
2023-05-15T19:22:17.818Z,100395.47
2023-05-15T19:24:47.746Z,100389.81
2023-05-15T19:27:17.828Z,100394.28
2023-05-15T19:29:50.220Z,100383.75
2023-05-15T19:32:20.306Z,100395.47
2023-05-15T19:34:50.906Z,100393.06
2023-05-15T19:37:20.877Z,100395.91
2023-05-15T19:39:51.409Z,100394.28
2023-05-15T19:42:22.068Z,100397.13
2023-05-15T19:44:53.775Z,100396.28
2023-05-15T19:47:23.694Z,100394.66
2023-05-15T19:49:54.270Z,100403.59
2023-05-15T19:52:25.239Z,100399.94
2023-05-15T19:54:55.837Z,100393.47
2023-05-15T19:57:26.200Z,100386.59
2023-05-15T19:59:58.767Z,100390.22
2023-05-15T20:02:29.444Z,100391.44
2023-05-15T20:04:59.917Z,100394.69
2023-05-15T20:07:30.263Z,100391.84
2023-05-15T20:10:00.350Z,100389.44
2023-05-15T20:12:30.377Z,100389.44
2023-05-15T20:15:04.676Z,100390.63
2023-05-15T20:17:35.721Z,100387.41
2023-05-15T20:20:08.726Z,100382.16
2023-05-15T20:22:39.818Z,100390.66
2023-05-15T20:25:11.689Z,100385.38
2023-05-15T20:27:42.434Z,100389.41
2023-05-15T20:30:16.533Z,100388.59
2023-05-15T20:32:46.833Z,100387.00
2023-05-15T20:35:17.839Z,100387.00
2023-05-15T20:37:49.184Z,100383.75
2023-05-15T20:40:23.286Z,100388.63
2023-05-15T20:42:54.820Z,100383.34
2023-05-15T20:45:28.668Z,100380.50
2023-05-15T20:47:58.925Z,100385.75
2023-05-15T20:50:29.660Z,100380.88
2023-05-15T20:53:00.308Z,100378.47
2023-05-15T20:55:30.868Z,100374.81
2023-05-15T20:58:01.247Z,100374.81
2023-05-15T21:00:33.913Z,100374.81
2023-05-15T21:03:04.135Z,100380.09
2023-05-15T21:05:34.933Z,100376.44
2023-05-15T21:08:08.305Z,100379.25
2023-05-15T21:10:39.020Z,100378.84
2023-05-15T21:13:09.170Z,100378.84
2023-05-15T21:15:41.639Z,100375.22
2023-05-15T21:18:12.156Z,100368.34
2023-05-15T21:20:43.261Z,100380.47
2023-05-15T21:23:13.380Z,100378.06
2023-05-15T21:25:45.408Z,100377.22
2023-05-15T21:28:16.136Z,100371.56
2023-05-15T21:30:48.315Z,100381.28
2023-05-15T21:33:18.369Z,100381.28
2023-05-15T21:35:49.382Z,100377.66
2023-05-15T21:38:19.769Z,100376.03
2023-05-15T21:40:50.173Z,100376.03
2023-05-15T21:43:19.999Z,100372.41
2023-05-15T21:45:51.952Z,100372.78
2023-05-15T21:48:21.799Z,100369.16
2023-05-15T21:50:52.062Z,100365.91
2023-05-15T21:53:22.720Z,100365.91
2023-05-15T21:55:57.319Z,100367.13
2023-05-15T21:58:27.847Z,100372.78
2023-05-15T22:00:59.836Z,100363.50
2023-05-15T22:03:30.511Z,100359.03
2023-05-15T22:06:00.964Z,100358.63
2023-05-15T22:08:31.958Z,100360.63
2023-05-15T22:11:03.734Z,100367.53
2023-05-15T22:13:34.498Z,100360.25
2023-05-15T22:16:06.805Z,100357.00
2023-05-15T22:18:38.256Z,100372.38
2023-05-15T22:21:09.099Z,100359.44
2023-05-15T22:23:39.495Z,100357.00
2023-05-15T22:26:09.617Z,100366.28
2023-05-15T22:28:39.684Z,100361.84
2023-05-15T22:31:11.076Z,100365.88
2023-05-15T22:33:41.546Z,100368.34
2023-05-15T22:36:12.408Z,100367.91
2023-05-15T22:38:42.935Z,100367.50
2023-05-15T22:41:12.930Z,100374.38
2023-05-15T22:43:42.964Z,100375.59
2023-05-15T22:46:16.466Z,100371.13
2023-05-15T22:48:47.019Z,100371.13
2023-05-15T22:51:18.007Z,100370.75
2023-05-15T22:53:48.587Z,100367.09
2023-05-15T22:56:19.105Z,100364.25
2023-05-15T22:58:50.326Z,100356.19
2023-05-15T23:01:22.258Z,100350.94
2023-05-15T23:03:52.757Z,100349.69
2023-05-15T23:06:22.725Z,100355.75
2023-05-15T23:08:53.334Z,100354.56
2023-05-15T23:11:23.571Z,100354.56
2023-05-15T23:13:54.189Z,100358.19
2023-05-15T23:16:26.783Z,100357.31
2023-05-15T23:18:59.973Z,100354.47
2023-05-15T23:21:31.588Z,100359.31
2023-05-15T23:24:02.042Z,100346.00
2023-05-15T23:26:32.510Z,100351.22
2023-05-15T23:29:03.110Z,100347.19
2023-05-15T23:31:35.309Z,100337.09
2023-05-15T23:34:05.938Z,100339.91
2023-05-15T23:36:36.357Z,100339.91
2023-05-15T23:39:08.476Z,100341.09
2023-05-15T23:41:39.055Z,100339.06
2023-05-15T23:44:09.546Z,100345.13
2023-05-15T23:46:41.706Z,100361.25
2023-05-15T23:49:12.618Z,100349.13
2023-05-15T23:51:44.118Z,100347.09
2023-05-15T23:54:14.532Z,100344.28
2023-05-15T23:56:44.880Z,100343.03
2023-05-15T23:59:16.067Z,100343.84
